ST. PETERSBURG OFFSHORE, FL - 144

GPS Positions

GPS Time
Latitude
Degrees
Longitude
Degrees
Gap
 
Distance
NM
Speed
Knots
Direction
Degrees
Apr 18, 05:41 27.35300° -84.27825° 2 min 0.07 0.04
180°
Apr 18, 05:39 27.35302° -84.27825° 8 min 0.07 0.02
203°
Apr 18, 05:31 27.35305° -84.27824° 2 min 0.07 0.00
Apr 18, 05:29 27.35305° -84.27824° 8 min 0.07 0.01
90°
Apr 18, 05:21 27.35305° -84.27825° 2 min 0.07 0.00
Apr 18, 05:19 27.35305° -84.27825° 8 min 0.07 0.01
235°
Apr 18, 05:11 27.35306° -84.27824° 2 min 0.07 0.00
Apr 18, 05:09 27.35306° -84.27824° 8 min 0.07 0.00
Apr 18, 05:01 27.35306° -84.27824° 2 min 0.07 0.04
270°
Apr 18, 04:59 27.35306° -84.27821° 8 min 0.07 0.00
Apr 18, 04:51 27.35306° -84.27821° 2 min 0.07 0.00
Apr 18, 04:49 27.35306° -84.27821° 8 min 0.07 0.00
Apr 18, 04:41 27.35305° -84.27821° 2 min 0.07 0.00
Apr 18, 04:39 27.35305° -84.27821° 8 min 0.07 0.02
309°
Apr 18, 04:31 27.35302° -84.27817° 2 min 0.07 0.00
Apr 18, 04:29 27.35302° -84.27817° 8 min 0.07 0.00
180°
Apr 18, 04:21 27.35303° -84.27817° 2 min 0.07 0.00
Apr 18, 04:19 27.35303° -84.27817° 8 min 0.07 0.02
148°
Apr 18, 04:11 27.35306° -84.27819° 1 min 0.07 0.00
Apr 18, 04:09 27.35306° -84.27819° 8 min 0.07 0.02
155°
Apr 18, 04:01 27.35311° -84.27821° 2 min 0.07 0.00
Apr 18, 03:59 27.35311° -84.27821° 8 min 0.07 0.02
134°
Apr 18, 03:51 27.35314° -84.27825° 2 min 0.07 0.02
180°
Apr 18, 03:49 27.35315° -84.27825° 8 min 0.07 0.02
148°
Apr 18, 03:41 27.35318° -84.27827° 2 min 0.07 0.00
Apr 18, 03:39 27.35318° -84.27827° 8 min 0.07 0.02
117°
Apr 18, 03:31 27.35320° -84.27832° 2 min 0.07 0.02
180°
Apr 18, 03:29 27.35321° -84.27832° 8 min 0.07 0.01
136°
Apr 18, 03:21 27.35323° -84.27834° 2 min 0.07 0.02
90°
Apr 18, 03:19 27.35323° -84.27836° 8 min 0.07 0.01
180°
Apr 18, 03:11 27.35327° -84.27836° 2 min 0.07 0.05
136°
Apr 18, 03:09 27.35329° -84.27838° 8 min 0.07 0.01
90°
Apr 18, 03:01 27.35329° -84.27840° 2 min 0.07 0.04
90°
Apr 18, 02:59 27.35329° -84.27843° 8 min 0.07 0.02
148°
Apr 18, 02:51 27.35332° -84.27845° 2 min 0.07 0.04
90°
Apr 18, 02:49 27.35332° -84.27847° 8 min 0.07 0.02
134°
Apr 18, 02:41 27.35335° -84.27851° 2 min 0.07 0.04
119°
Apr 18, 02:39 27.35336° -84.27853° 8 min 0.07 0.02
117°
Apr 18, 02:31 27.35338° -84.27858° 2 min 0.07 0.05
147°
Apr 18, 02:29 27.35340° -84.27859° 8 min 0.07 0.02
106°
Apr 18, 02:21 27.35342° -84.27864° 2 min 0.07 0.04
61°
Apr 18, 02:19 27.35340° -84.27866° 8 min 0.07 0.01
119°
Apr 18, 02:11 27.35342° -84.27869° 2 min 0.07 0.00
Apr 18, 02:09 27.35342° -84.27869° 8 min 0.07 0.02
122°
Apr 18, 02:01 27.35344° -84.27872° 2 min 0.07 0.00
Apr 18, 01:59 27.35344° -84.27872° 8 min 0.07 0.02
106°
Apr 18, 01:51 27.35345° -84.27877° 2 min 0.07 0.00
Apr 18, 01:49 27.35345° -84.27877° 8 min 0.07 0.02
117°
Apr 18, 01:41 27.35347° -84.27882° 2 min 0.07 0.00
Apr 18, 01:39 27.35347° -84.27882° 8 min 0.07 0.00
Apr 18, 01:31 27.35347° -84.27882° 1 min 0.07 0.00
Apr 18, 01:29 27.35347° -84.27882° 8 min 0.07 0.00
Apr 18, 01:21 27.35347° -84.27882° 2 min 0.07 0.00
Apr 18, 01:19 27.35347° -84.27882° 8 min 0.07 0.00
Apr 18, 01:11 27.35347° -84.27882° 1 min 0.07 0.00
Apr 18, 01:09 27.35347° -84.27882° 8 min 0.07 0.01
90°
Apr 18, 01:01 27.35347° -84.27883° 2 min 0.07 0.04
119°
Apr 18, 00:59 27.35348° -84.27885° 8 min 0.07 0.02
117°
Apr 18, 00:51 27.35350° -84.27890° 2 min 0.07 0.02
180°
Apr 18, 00:49 27.35351° -84.27890° 8 min 0.07 0.02
90°
Apr 18, 00:41 27.35351° -84.27896° 2 min 0.07 0.04
180°
Apr 18, 00:39 27.35353° -84.27896° 8 min 0.08 0.01
90°
Apr 18, 00:31 27.35353° -84.27898° 2 min 0.07 0.00
Apr 18, 00:29 27.35353° -84.27898° 8 min 0.07 0.02
90°
Apr 18, 00:21 27.35353° -84.27903° 2 min 0.07 0.02
180°
Apr 18, 00:19 27.35354° -84.27903° 8 min 0.08 0.00
Apr 18, 00:11 27.35353° -84.27903° 2 min 0.07 0.02
180°
Apr 18, 00:09 27.35354° -84.27903° 8 min 0.08 0.02
283°
Apr 18, 00:01 27.35353° -84.27898° 2 min 0.07 0.00
Apr 17, 23:59 27.35353° -84.27898° 8 min 0.07 0.00
180°
Apr 17, 23:51 27.35354° -84.27898° 2 min 0.08 0.04
295°
Apr 17, 23:49 27.35353° -84.27896° 8 min 0.08 0.00
Apr 17, 23:41 27.35353° -84.27896° 2 min 0.08 0.04
90°
Apr 17, 23:39 27.35353° -84.27898° 8 min 0.07 0.02
103°
Apr 17, 23:31 27.35354° -84.27903° 2 min 0.08 0.00
Apr 17, 23:29 27.35354° -84.27903° 8 min 0.08 0.02
90°
Apr 17, 23:21 27.35354° -84.27909° 2 min 0.07 0.06
138°
Apr 17, 23:19 27.35357° -84.27911° 8 min 0.08 0.02
90°
Apr 17, 23:11 27.35357° -84.27917° 2 min 0.08 0.04
90°
Apr 17, 23:09 27.35357° -84.27920° 8 min 0.08 0.02
90°
Apr 17, 23:01 27.35357° -84.27924° 2 min 0.08 0.05
136°
Apr 17, 22:59 27.35359° -84.27927° 8 min 0.08 0.02
90°
Apr 17, 22:51 27.35359° -84.27933° 2 min 0.08 0.04
Apr 17, 22:49 27.35357° -84.27933° 8 min 0.08 0.03
109°
Apr 17, 22:41 27.35359° -84.27940° 2 min 0.08 0.00
Apr 17, 22:39 27.35359° -84.27940° 8 min 0.08 0.01
33°
Apr 17, 22:31 27.35357° -84.27941° 2 min 0.08 0.04
90°
Apr 17, 22:29 27.35357° -84.27943° 8 min 0.08 0.00
Apr 17, 22:21 27.35357° -84.27943° 2 min 0.08 0.04
90°
Apr 17, 22:19 27.35357° -84.27946° 8 min 0.08 0.02
117°
Apr 17, 22:11 27.35359° -84.27950° 2 min 0.08 0.04
Apr 17, 22:09 27.35357° -84.27950° 8 min 0.08 0.03
90°
Apr 17, 22:01 27.35357° -84.27959° 2 min 0.08 0.00
Apr 17, 21:59 27.35357° -84.27959° 8 min 0.08 0.01
90°
Apr 17, 21:51 27.35357° -84.27961° 2 min 0.08 0.04
Apr 17, 21:49 27.35354° -84.27961° 8 min 0.08 0.01
90°
Apr 17, 21:41 27.35354° -84.27962° 2 min 0.08 0.06
138°
Apr 17, 21:39 27.35357° -84.27965° 8 min 0.08 0.02
32°
Apr 17, 21:31 27.35353° -84.27967° 2 min 0.08 0.04
90°
Apr 17, 21:29 27.35353° -84.27969° 8 min 0.08 0.01
44°
Apr 17, 21:21 27.35351° -84.27972° 2 min 0.08 0.00
Apr 17, 21:19 27.35351° -84.27972° 8 min 0.08 0.02
90°
Apr 17, 21:11 27.35351° -84.27975° 2 min 0.08 0.00
Apr 17, 21:09 27.35351° -84.27975° 8 min 0.08 0.01
61°
Apr 17, 21:01 27.35350° -84.27978° 2 min 0.08 0.04
Apr 17, 20:59 27.35348° -84.27978° 8 min 0.08 0.02
117°
Apr 17, 20:51 27.35350° -84.27982° 2 min 0.08 0.05
44°
Apr 17, 20:49 27.35348° -84.27985° 8 min 0.08 0.01
90°
Apr 17, 20:41 27.35348° -84.27986° 2 min 0.08 0.02
Apr 17, 20:39 27.35347° -84.27986° 8 min 0.08 0.02
90°
Apr 17, 20:31 27.35347° -84.27991° 2 min 0.08 0.05
44°
Apr 17, 20:29 27.35345° -84.27993° 8 min 0.08 0.01
Apr 17, 20:21 27.35344° -84.27993° 2 min 0.08 0.04
90°
Apr 17, 20:19 27.35344° -84.27995° 8 min 0.08 0.01
90°
Apr 17, 20:11 27.35344° -84.27997° 2 min 0.08 0.00
Apr 17, 20:09 27.35344° -84.27997° 8 min 0.08 0.01
44°
Apr 17, 20:01 27.35342° -84.27999° 2 min 0.08 0.00
Apr 17, 19:59 27.35342° -84.27999° 8 min 0.08 0.03
79°
Apr 17, 19:51 27.35340° -84.28006° 1 min 0.08 0.04
Apr 17, 19:49 27.35338° -84.28006° 8 min 0.08 0.02
46°
Apr 17, 19:41 27.35335° -84.28010° 2 min 0.08 0.04
90°
Apr 17, 19:39 27.35335° -84.28012° 8 min 0.08 0.01
44°
Apr 17, 19:31 27.35333° -84.28014° 2 min 0.08 0.04
61°
Apr 17, 19:29 27.35332° -84.28017° 8 min 0.08 0.01
90°
Apr 17, 19:21 27.35332° -84.28019° 2 min 0.08 0.04
270°
Apr 17, 19:19 27.35332° -84.28017° 8 min 0.08 0.02
58°
Apr 17, 19:11 27.35330° -84.28020° 2 min 0.08 0.02
270°
Apr 17, 19:09 27.35330° -84.28019° 8 min 0.08 0.02
46°
Apr 17, 19:01 27.35327° -84.28023° 2 min 0.08 0.04
61°
Apr 17, 18:59 27.35325° -84.28025° 8 min 0.08 0.03
52°
Apr 17, 18:51 27.35321° -84.28031° 2 min 0.08 0.02
Apr 17, 18:49 27.35320° -84.28031° 8 min 0.08 0.03
63°
Apr 17, 18:41 27.35317° -84.28038° 2 min 0.08 0.04
Apr 17, 18:39 27.35315° -84.28038° 8 min 0.08 0.03
59°
Apr 17, 18:31 27.35312° -84.28044° 2 min 0.08 0.02
Apr 17, 18:29 27.35311° -84.28044° 8 min 0.08 0.01
42°
Apr 17, 18:21 27.35308° -84.28046° 2 min 0.08 0.04
Apr 17, 18:19 27.35306° -84.28046° 8 min 0.08 0.03
44°
Apr 17, 18:11 27.35302° -84.28051° 2 min 0.08 0.04
90°
Apr 17, 18:09 27.35302° -84.28053° 8 min 0.08 0.01
Apr 17, 18:01 27.35299° -84.28053° 2 min 0.08 0.04
Apr 17, 17:59 27.35297° -84.28053° 8 min 0.08 0.01
50°
Apr 17, 17:51 27.35295° -84.28055° 2 min 0.08 0.05
327°
Apr 17, 17:49 27.35293° -84.28053° 8 min 0.08 0.02
46°
Apr 17, 17:41 27.35290° -84.28057° 2 min 0.08 0.04
Apr 17, 17:39 27.35288° -84.28057° 8 min 0.08 0.02
32°
Apr 17, 17:31 27.35285° -84.28059° 2 min 0.08 0.04
90°
Apr 17, 17:29 27.35285° -84.28062° 8 min 0.08 0.01
Apr 17, 17:21 27.35284° -84.28062° 2 min 0.08 0.00
Apr 17, 17:19 27.35284° -84.28062° 8 min 0.08 0.02
32°
Apr 17, 17:11 27.35280° -84.28064° 1 min 0.08 0.05
33°
Apr 17, 17:09 27.35278° -84.28065° 8 min 0.08 0.03
21°
Apr 17, 17:01 27.35273° -84.28068° 2 min 0.08 0.02
Apr 17, 16:59 27.35272° -84.28068° 8 min 0.08 0.02
32°
Apr 17, 16:51 27.35269° -84.28070° 2 min 0.08 0.04
Apr 17, 16:49 27.35266° -84.28070° 8 min 0.08 0.01
90°
Apr 17, 16:41 27.35266° -84.28072° 2 min 0.08 0.00
Apr 17, 16:39 27.35266° -84.28072° 8 min 0.08 0.01
Apr 17, 16:31 27.35263° -84.28072° 2 min 0.08 0.00
Apr 17, 16:29 27.35263° -84.28072° 8 min 0.08 0.01
Apr 17, 16:21 27.35260° -84.28072° 2 min 0.08 0.04
90°
Apr 17, 16:19 27.35260° -84.28075° 8 min 0.08 0.02
328°
Apr 17, 16:11 27.35257° -84.28072° 2 min 0.08 0.05
44°
Apr 17, 16:09 27.35255° -84.28075° 8 min 0.08 0.02
328°
Apr 17, 16:01 27.35251° -84.28072° 2 min 0.08 0.04
65°
Apr 17, 15:59 27.35250° -84.28075° 8 min 0.08 0.01
Apr 17, 15:51 27.35247° -84.28075° 2 min 0.08 0.00
Apr 17, 15:49 27.35247° -84.28075° 8 min 0.08 0.02
Apr 17, 15:41 27.35243° -84.28075° 2 min 0.08 0.00
Apr 17, 15:39 27.35243° -84.28075° 8 min 0.08 0.03
Apr 17, 15:31 27.35235° -84.28075° 2 min 0.08 0.00
Apr 17, 15:29 27.35235° -84.28075° 8 min 0.08 0.01
Apr 17, 15:21 27.35233° -84.28075° 2 min 0.08 0.04
61°
Apr 17, 15:19 27.35232° -84.28077° 8 min 0.08 0.02
334°
Apr 17, 15:11 27.35228° -84.28075° 2 min 0.08 0.04
180°
Apr 17, 15:09 27.35230° -84.28075° 8 min 0.08 0.01
Apr 17, 15:01 27.35228° -84.28075° 2 min 0.08 0.00
Apr 17, 14:59 27.35228° -84.28075° 8 min 0.08 0.01
Apr 17, 14:51 27.35225° -84.28075° 2 min 0.08 0.02
Apr 17, 14:49 27.35224° -84.28075° 8 min 0.08 0.01
Apr 17, 14:41 27.35221° -84.28075° 2 min 0.08 0.00
Apr 17, 14:39 27.35221° -84.28075° 8 min 0.08 0.01
Apr 17, 14:31 27.35220° -84.28075° 2 min 0.08 0.04
Apr 17, 14:29 27.35218° -84.28075° 8 min 0.08 0.01
Apr 17, 14:21 27.35217° -84.28075° 2 min 0.08 0.00
Apr 17, 14:19 27.35217° -84.28075° 8 min 0.08 0.00
Apr 17, 14:11 27.35217° -84.28075° 1 min 0.08 0.02
180°
Apr 17, 14:09 27.35218° -84.28075° 8 min 0.08 0.01
Apr 17, 14:01 27.35215° -84.28075° 2 min 0.08 0.04
270°
Apr 17, 13:59 27.35215° -84.28072° 8 min 0.08 0.01
Apr 17, 13:51 27.35212° -84.28072° 2 min 0.08 0.04
Apr 17, 13:49 27.35210° -84.28072° 8 min 0.08 0.02
328°
Apr 17, 13:41 27.35206° -84.28070° 2 min 0.08 0.02
Apr 17, 13:39 27.35205° -84.28070° 8 min 0.08 0.03
339°
Apr 17, 13:31 27.35200° -84.28068° 2 min 0.08 0.05
Apr 17, 13:29 27.35197° -84.28068° 8 min 0.08 0.02
Apr 17, 13:21 27.35191° -84.28068° 2 min 0.08 0.02
Apr 17, 13:19 27.35190° -84.28068° 8 min 0.08 0.04
336°
Apr 17, 13:11 27.35183° -84.28064° 2 min 0.08 0.05
Apr 17, 13:09 27.35180° -84.28064° 8 min 0.08 0.04
332°
Apr 17, 13:01 27.35172° -84.28059° 2 min 0.08 0.05
316°
Apr 17, 12:59 27.35170° -84.28057° 8 min 0.08 0.06
337°
Apr 17, 12:51 27.35157° -84.28051° 2 min 0.08 0.05
316°
Apr 17, 12:49 27.35155° -84.28049° 8 min 0.08 0.07
323°
Apr 17, 12:41 27.35142° -84.28038° 2 min 0.08 0.11
340°
Apr 17, 12:39 27.35137° -84.28036° 8 min 0.08 0.07
315°
Apr 17, 12:31 27.35125° -84.28023° 2 min 0.08 0.12
329°
Apr 17, 12:29 27.35119° -84.28019° 8 min 0.08 0.09
298°
Apr 17, 12:21 27.35110° -84.27999° 2 min 0.08 0.08
314°
Apr 17, 12:19 27.35107° -84.27995° 8 min 0.08 0.09
285°
Apr 17, 12:11 27.35101° -84.27973° 2 min 0.08 0.10
270°
Apr 17, 12:09 27.35101° -84.27967° 8 min 0.08 0.08
274°
Apr 17, 12:01 27.35100° -84.27948° 2 min 0.08 0.11
270°
Apr 17, 11:59 27.35100° -84.27941° 8 min 0.08 0.09
267°
Apr 17, 11:51 27.35101° -84.27920° 2 min 0.08 0.07
238°
Apr 17, 11:49 27.35103° -84.27916° 8 min 0.08 0.08
266°
Apr 17, 11:41 27.35105° -84.27896° 2 min 0.08 0.07
238°
Apr 17, 11:39 27.35107° -84.27892° 8 min 0.08 0.07
258°
Apr 17, 11:31 27.35110° -84.27875° 1 min 0.08 0.07
212°
Apr 17, 11:29 27.35113° -84.27872° 8 min 0.07 0.06
241°
Apr 17, 11:21 27.35119° -84.27859° 2 min 0.07 0.05
211°
Apr 17, 11:19 27.35122° -84.27858° 8 min 0.07 0.05
251°
Apr 17, 11:11 27.35125° -84.27847° 2 min 0.07 0.05
224°
Apr 17, 11:09 27.35127° -84.27845° 8 min 0.07 0.04
243°
Apr 17, 11:01 27.35131° -84.27836° 2 min 0.07 0.06
180°
Apr 17, 10:59 27.35135° -84.27836° 8 min 0.07 0.05
221°
Apr 17, 10:51 27.35143° -84.27827° 2 min 0.07 0.06
222°
Apr 17, 10:49 27.35145° -84.27825° 8 min 0.07 0.04
202°
Apr 17, 10:41 27.35154° -84.27821° 2 min 0.07 0.04
241°
Apr 17, 10:39 27.35155° -84.27819° 8 min 0.07 0.04
193°
Apr 17, 10:31 27.35163° -84.27817° 2 min 0.07 0.07
212°
Apr 17, 10:29 27.35167° -84.27814° 8 min 0.07 0.04
180°
Apr 17, 10:21 27.35175° -84.27814° 2 min 0.07 0.06
203°
Apr 17, 10:19 27.35179° -84.27813° 8 min 0.06 0.04
171°
Apr 17, 10:11 27.35187° -84.27814° 2 min 0.06 0.02
180°
Apr 17, 10:09 27.35188° -84.27814° 8 min 0.06 0.04
180°
Apr 17, 10:01 27.35197° -84.27814° 2 min 0.06 0.02
180°
Apr 17, 09:59 27.35198° -84.27814° 8 min 0.06 0.02
197°
Apr 17, 09:51 27.35202° -84.27813° 2 min 0.06 0.02
90°
Apr 17, 09:49 27.35202° -84.27814° 8 min 0.06 0.02
204°
Apr 17, 09:41 27.35205° -84.27813° 2 min 0.06 0.00
Apr 17, 09:39 27.35205° -84.27813° 8 min 0.06 0.02
212°
Apr 17, 09:31 27.35209° -84.27811° 2 min 0.06 0.04
241°
Apr 17, 09:29 27.35210° -84.27808° 8 min 0.06 0.01
224°
Apr 17, 09:21 27.35212° -84.27806° 2 min 0.06 0.00
Apr 17, 09:19 27.35212° -84.27806° 8 min 0.06 0.01
180°
Apr 17, 09:11 27.35213° -84.27806° 2 min 0.06 0.04
180°
Apr 17, 09:09 27.35215° -84.27806° 8 min 0.06 0.01
180°
Apr 17, 09:01 27.35217° -84.27806° 2 min 0.06 0.02
180°
Apr 17, 08:59 27.35218° -84.27806° 8 min 0.06 0.01
180°
Apr 17, 08:51 27.35220° -84.27806° 2 min 0.06 0.02
180°
Apr 17, 08:49 27.35221° -84.27806° 8 min 0.06 0.01
180°
Apr 17, 08:41 27.35225° -84.27806° 2 min 0.06 0.04
180°
Apr 17, 08:39 27.35227° -84.27806° 8 min 0.06 0.03
180°
Apr 17, 08:31 27.35233° -84.27806° 1 min 0.06 0.04
90°
Apr 17, 08:29 27.35233° -84.27808° 8 min 0.06 0.03
147°
Apr 17, 08:21 27.35240° -84.27813° 2 min 0.06 0.06
222°
Apr 17, 08:19 27.35242° -84.27811° 8 min 0.06 0.03
197°
Apr 17, 08:11 27.35248° -84.27808° 2 min 0.06 0.05
136°
Apr 17, 08:09 27.35250° -84.27811° 8 min 0.06 0.02
148°
Apr 17, 08:01 27.35254° -84.27813° 2 min 0.06 0.03
125°
Apr 17, 07:59 27.35255° -84.27814° 8 min 0.06 0.01
180°
Apr 17, 07:51 27.35257° -84.27814° 2 min 0.06 0.03
230°
Apr 17, 07:49 27.35258° -84.27813° 8 min 0.06 0.00
Apr 17, 07:41 27.35258° -84.27813° 2 min 0.06 0.00
Apr 17, 07:39 27.35258° -84.27813° 8 min 0.06 0.01
180°
Apr 17, 07:31 27.35260° -84.27813° 2 min 0.06 0.04
270°
Apr 17, 07:29 27.35260° -84.27811° 8 min 0.06 0.02
270°
Apr 17, 07:21 27.35260° -84.27806° 2 min 0.06 0.00
Apr 17, 07:19 27.35260° -84.27806° 8 min 0.06 0.00
Apr 17, 07:11 27.35260° -84.27806° 2 min 0.06 0.04
180°
Apr 17, 07:09 27.35262° -84.27806° 8 min 0.06 0.00
Apr 17, 07:01 27.35262° -84.27806° 2 min 0.06 0.00
Apr 17, 06:59 27.35262° -84.27806° 8 min 0.06 0.01
245°
Apr 17, 06:51 27.35263° -84.27804° 2 min 0.06 0.04
90°
Apr 17, 06:49 27.35263° -84.27806° 8 min 0.06 0.01
180°
Apr 17, 06:41 27.35266° -84.27806° 2 min 0.06 0.02
180°
Apr 17, 06:39 27.35266° -84.27806° 8 min 0.06 0.00
Apr 17, 06:31 27.35266° -84.27806° 2 min 0.06 0.00
Apr 17, 06:29 27.35266° -84.27806° 8 min 0.06 0.01
180°
Apr 17, 06:21 27.35270° -84.27806° 2 min 0.07 0.06
180°
Apr 17, 06:19 27.35273° -84.27806° 8 min 0.07 0.03
143°
Apr 17, 06:11 27.35278° -84.27811° 2 min 0.07 0.00
Apr 17, 06:09 27.35278° -84.27811° 8 min 0.07 0.01
136°
Apr 17, 06:01 27.35280° -84.27813° 2 min 0.06 0.04
241°
Apr 17, 05:59 27.35282° -84.27811° 8 min 0.07 0.01
136°
Apr 17, 05:51 27.35284° -84.27813° 1 min 0.07 0.02
180°
Apr 17, 05:49 27.35285° -84.27813° 8 min 0.07 0.01
147°
Apr 17, 05:41 27.35287° -84.27814° 2 min 0.07 0.06
180°
Apr 17, 05:39 27.35290° -84.27814° 8 min 0.07 0.01
115°
Apr 17, 05:31 27.35291° -84.27817° 2 min 0.07 0.04
90°
Apr 17, 05:29 27.35291° -84.27819° 8 min 0.07 0.01
138°
Apr 17, 05:21 27.35293° -84.27821° 2 min 0.06 0.04
180°
Apr 17, 05:19 27.35295° -84.27821° 8 min 0.07 0.01
180°
Apr 17, 05:11 27.35297° -84.27821° 2 min 0.07 0.05
136°
Apr 17, 05:09 27.35299° -84.27824° 8 min 0.07 0.02
134°
Apr 17, 05:01 27.35302° -84.27827° 2 min 0.07 0.00
Apr 17, 04:59 27.35302° -84.27827° 8 min 0.07 0.01
180°
Apr 17, 04:51 27.35305° -84.27827° 2 min 0.07 0.07
146°
Apr 17, 04:49 27.35308° -84.27830° 8 min 0.07 0.03
113°
Apr 17, 04:41 27.35311° -84.27836° 2 min 0.07 0.02
180°
Apr 17, 04:39 27.35312° -84.27836° 8 min 0.07 0.02
129°
Apr 17, 04:31 27.35315° -84.27840° 2 min 0.07 0.00
Apr 17, 04:29 27.35315° -84.27840° 8 min 0.07 0.02
148°
Apr 17, 04:21 27.35318° -84.27843° 2 min 0.07 0.00
Apr 17, 04:19 27.35318° -84.27843° 8 min 0.07 0.00
Apr 17, 04:11 27.35318° -84.27843° 2 min 0.07 0.00
Apr 17, 04:09 27.35318° -84.27843° 8 min 0.07 0.01
180°
Apr 17, 04:01 27.35320° -84.27843° 2 min 0.07 0.00
Apr 17, 03:59 27.35320° -84.27843° 8 min 0.07 0.01
180°
Apr 17, 03:51 27.35321° -84.27843° 2 min 0.07 0.04
180°
Apr 17, 03:49 27.35323° -84.27843° 8 min 0.07 0.02
117°
Apr 17, 03:41 27.35325° -84.27847° 2 min 0.07 0.00
Apr 17, 03:39 27.35325° -84.27847° 8 min 0.07 0.02
134°
Apr 17, 03:31 27.35329° -84.27851° 2 min 0.07 0.02
180°
Apr 17, 03:29 27.35330° -84.27851° 8 min 0.07 0.01
136°
Apr 17, 03:21 27.35332° -84.27853° 2 min 0.07 0.00
Apr 17, 03:19 27.35332° -84.27853° 8 min 0.07 0.01
119°
Apr 17, 03:11 27.35333° -84.27856° 2 min 0.07 0.04
270°
Apr 17, 03:09 27.35333° -84.27853° 8 min 0.07 0.01
90°
Apr 17, 03:01 27.35333° -84.27856° 2 min 0.07 0.05
136°
Apr 17, 02:59 27.35335° -84.27858° 8 min 0.07 0.02
109°
Apr 17, 02:51 27.35336° -84.27862° 1 min 0.07 0.00
Apr 17, 02:49 27.35336° -84.27862° 8 min 0.07 0.03
136°
Apr 17, 02:41 27.35340° -84.27866° 2 min 0.07 0.00
Apr 17, 02:39 27.35340° -84.27866° 8 min 0.07 0.03
121°
Apr 17, 02:31 27.35344° -84.27872° 2 min 0.07 0.00
Apr 17, 02:29 27.35344° -84.27872° 8 min 0.07 0.02
106°
Apr 17, 02:21 27.35345° -84.27877° 2 min 0.07 0.04
61°
Apr 17, 02:19 27.35344° -84.27879° 8 min 0.07 0.01
119°
Apr 17, 02:11 27.35345° -84.27882° 2 min 0.07 0.00
Apr 17, 02:09 27.35345° -84.27882° 8 min 0.07 0.01
147°
Apr 17, 02:01 27.35347° -84.27883° 2 min 0.07 0.02
180°
Apr 17, 01:59 27.35348° -84.27883° 8 min 0.07 0.02
90°
Apr 17, 01:51 27.35348° -84.27888° 2 min 0.07 0.04
90°
Apr 17, 01:49 27.35348° -84.27890° 8 min 0.07 0.03
111°
Apr 17, 01:41 27.35350° -84.27896° 2 min 0.07 0.00
Apr 17, 01:39 27.35350° -84.27896° 8 min 0.07 0.02
106°
Apr 17, 01:31 27.35351° -84.27901° 2 min 0.07 0.00
Apr 17, 01:29 27.35351° -84.27901° 8 min 0.07 0.01
90°
Apr 17, 01:21 27.35351° -84.27903° 2 min 0.07 0.00
Apr 17, 01:19 27.35351° -84.27903° 8 min 0.07 0.02
90°
Apr 17, 01:11 27.35351° -84.27907° 2 min 0.07 0.05
136°
Apr 17, 01:09 27.35353° -84.27909° 8 min 0.07 0.01
90°
Apr 17, 01:01 27.35353° -84.27911° 2 min 0.07 0.00
Apr 17, 00:59 27.35353° -84.27911° 8 min 0.07 0.00
180°
Apr 17, 00:51 27.35354° -84.27911° 2 min 0.07 0.00
Apr 17, 00:49 27.35354° -84.27911° 8 min 0.07 0.00
Apr 17, 00:41 27.35354° -84.27911° 2 min 0.07 0.00
Apr 17, 00:39 27.35354° -84.27911° 8 min 0.07 0.01
180°
Apr 17, 00:31 27.35357° -84.27911° 2 min 0.08 0.04
Apr 17, 00:29 27.35354° -84.27911° 8 min 0.07 0.00
Apr 17, 00:21 27.35354° -84.27911° 2 min 0.07 0.06
138°
Apr 17, 00:19 27.35357° -84.27914° 8 min 0.08 0.00
Apr 17, 00:11 27.35357° -84.27914° 1 min 0.08 0.00
Apr 17, 00:09 27.35357° -84.27914° 8 min 0.08 0.01
90°
Apr 17, 00:01 27.35357° -84.27916° 2 min 0.08 0.00
Apr 16, 23:59 27.35357° -84.27916° 8 min 0.08 0.01
180°
Apr 16, 23:51 27.35359° -84.27916° 2 min 0.08 0.04
Apr 16, 23:49 27.35357° -84.27916° 8 min 0.08 0.01
90°
Apr 16, 23:41 27.35357° -84.27917° 2 min 0.08 0.00
Apr 16, 23:39 27.35357° -84.27917° 8 min 0.08 0.03
90°
Apr 16, 23:31 27.35357° -84.27924° 2 min 0.08 0.00
Apr 16, 23:29 27.35357° -84.27924° 8 min 0.08 0.02
90°
Apr 16, 23:21 27.35357° -84.27928° 2 min 0.08 0.00
Apr 16, 23:19 27.35357° -84.27928° 8 min 0.08 0.02
117°
Apr 16, 23:11 27.35359° -84.27933° 2 min 0.08 0.00
Apr 16, 23:09 27.35359° -84.27933° 8 min 0.08 0.00
Apr 16, 23:01 27.35359° -84.27933° 2 min 0.08 0.04
Apr 16, 22:59 27.35357° -84.27933° 8 min 0.08 0.02
117°
Apr 16, 22:51 27.35359° -84.27937° 2 min 0.08 0.00
Apr 16, 22:49 27.35359° -84.27937° 8 min 0.08 0.01
90°
Apr 16, 22:41 27.35359° -84.27940° 2 min 0.08 0.00
Apr 16, 22:39 27.35359° -84.27940° 8 min 0.08 0.02
90°
Apr 16, 22:31 27.35359° -84.27943° 2 min 0.08 0.00
Apr 16, 22:29 27.35359° -84.27943° 8 min 0.08 0.02
90°
Apr 16, 22:21 27.35359° -84.27948° 2 min 0.08 0.00
Apr 16, 22:19 27.35359° -84.27948° 8 min 0.08 0.01
90°
Apr 16, 22:11 27.35359° -84.27950° 2 min 0.08 0.04
Apr 16, 22:09 27.35357° -84.27950° 8 min 0.08 0.02
90°
Apr 16, 22:01 27.35357° -84.27954° 2 min 0.08 0.00
Apr 16, 21:59 27.35357° -84.27954° 8 min 0.08 0.01
136°
Apr 16, 21:51 27.35359° -84.27956° 2 min 0.08 0.04
90°
Apr 16, 21:49 27.35359° -84.27959° 8 min 0.08 0.02
90°
Apr 16, 21:41 27.35359° -84.27962° 2 min 0.08 0.02
270°
Apr 16, 21:39 27.35359° -84.27961° 8 min 0.08 0.01
33°
Apr 16, 21:31 27.35357° -84.27962° 2 min 0.08 0.00
Apr 16, 21:29 27.35357° -84.27962° 8 min 0.08 0.01
90°
Apr 16, 21:21 27.35357° -84.27965° 2 min 0.08 0.04
90°
Apr 16, 21:19 27.35357° -84.27967° 8 min 0.08 0.01
42°
Apr 16, 21:11 27.35354° -84.27969° 1 min 0.08 0.00
Apr 16, 21:09 27.35354° -84.27969° 8 min 0.08 0.02
80°
Apr 16, 21:01 27.35353° -84.27975° 2 min 0.08 0.00
Apr 16, 20:59 27.35353° -84.27975° 8 min 0.08 0.01
270°
Apr 16, 20:51 27.35353° -84.27973° 2 min 0.08 0.04
115°
Apr 16, 20:49 27.35354° -84.27975° 8 min 0.08 0.01
65°
Apr 16, 20:41 27.35353° -84.27978° 2 min 0.08 0.07
90°
Apr 16, 20:39 27.35353° -84.27982° 8 min 0.08 0.02
58°
Apr 16, 20:31 27.35351° -84.27986° 2 min 0.08 0.02
Apr 16, 20:29 27.35350° -84.27986° 8 min 0.08 0.01
90°
Apr 16, 20:21 27.35350° -84.27988° 2 min 0.08 0.04
90°
Apr 16, 20:19 27.35350° -84.27991° 8 min 0.08 0.01
44°
Apr 16, 20:11 27.35348° -84.27993° 2 min 0.08 0.00
Apr 16, 20:09 27.35348° -84.27993° 8 min 0.08 0.00
Apr 16, 20:01 27.35348° -84.27993° 2 min 0.08 0.02
Apr 16, 19:59 27.35347° -84.27993° 8 min 0.08 0.01
90°
Apr 16, 19:51 27.35347° -84.27995° 2 min 0.08 0.02
90°
Apr 16, 19:49 27.35347° -84.27997° 8 min 0.08 0.01
44°
Apr 16, 19:41 27.35345° -84.27999° 2 min 0.08 0.00
Apr 16, 19:39 27.35345° -84.27999° 8 min 0.08 0.03
62°
Apr 16, 19:31 27.35342° -84.28006° 2 min 0.08 0.04
90°
Apr 16, 19:29 27.35342° -84.28008° 8 min 0.08 0.01
50°
Apr 16, 19:21 27.35340° -84.28010° 2 min 0.08 0.05
44°
Apr 16, 19:19 27.35338° -84.28012° 8 min 0.08 0.01
44°
Apr 16, 19:11 27.35336° -84.28014° 2 min 0.08 0.00
Apr 16, 19:09 27.35336° -84.28014° 8 min 0.08 0.01
61°
Apr 16, 19:01 27.35335° -84.28017° 2 min 0.08 0.05
44°
Apr 16, 18:59 27.35333° -84.28019° 8 min 0.08 0.02
90°
Apr 16, 18:51 27.35333° -84.28023° 2 min 0.08 0.00
Apr 16, 18:49 27.35333° -84.28023° 8 min 0.08 0.01
61°
Apr 16, 18:41 27.35332° -84.28025° 2 min 0.08 0.04
90°
Apr 16, 18:39 27.35332° -84.28027° 8 min 0.08 0.01
316°
Apr 16, 18:31 27.35330° -84.28025° 1 min 0.08 0.00
Apr 16, 18:29 27.35330° -84.28025° 8 min 0.08 0.02
74°
Apr 16, 18:21 27.35329° -84.28030° 2 min 0.08 0.00
Apr 16, 18:19 27.35329° -84.28030° 8 min 0.08 0.03
32°
Apr 16, 18:11 27.35323° -84.28033° 2 min 0.08 0.05
44°
Apr 16, 18:09 27.35321° -84.28036° 8 min 0.08 0.02
26°
Apr 16, 18:01 27.35317° -84.28038° 2 min 0.08 0.06
42°
Apr 16, 17:59 27.35315° -84.28040° 8 min 0.08 0.02
39°
Apr 16, 17:51 27.35311° -84.28044° 2 min 0.08 0.00
Apr 16, 17:49 27.35311° -84.28044° 8 min 0.08 0.03
37°
Apr 16, 17:41 27.35305° -84.28049° 2 min 0.08 0.00
Apr 16, 17:39 27.35305° -84.28049° 8 min 0.08 0.02
51°
Apr 16, 17:31 27.35302° -84.28053° 2 min 0.08 0.00
Apr 16, 17:29 27.35302° -84.28053° 8 min 0.08 0.01
Apr 16, 17:21 27.35300° -84.28053° 2 min 0.08 0.02
90°
Apr 16, 17:19 27.35300° -84.28055° 8 min 0.08 0.01
310°
Apr 16, 17:11 27.35299° -84.28053° 2 min 0.08 0.02
90°
Apr 16, 17:09 27.35299° -84.28055° 8 min 0.08 0.02
32°
Apr 16, 17:01 27.35295° -84.28057° 2 min 0.08 0.04
Apr 16, 16:59 27.35293° -84.28057° 8 min 0.08 0.02
51°
Apr 16, 16:51 27.35290° -84.28062° 2 min 0.08 0.05
44°
Apr 16, 16:49 27.35288° -84.28064° 8 min 0.08 0.01
Apr 16, 16:41 27.35287° -84.28064° 2 min 0.08 0.04
Apr 16, 16:39 27.35285° -84.28064° 8 min 0.08 0.02
23°
Apr 16, 16:31 27.35282° -84.28065° 2 min 0.08 0.00
Apr 16, 16:29 27.35282° -84.28065° 8 min 0.08 0.01
Apr 16, 16:21 27.35278° -84.28065° 2 min 0.08 0.04
90°
Apr 16, 16:19 27.35278° -84.28068° 8 min 0.08 0.02
Apr 16, 16:11 27.35273° -84.28068° 2 min 0.08 0.02
Apr 16, 16:09 27.35272° -84.28068° 8 min 0.08 0.02
32°
Apr 16, 16:01 27.35269° -84.28070° 2 min 0.08 0.00
Apr 16, 15:59 27.35269° -84.28070° 8 min 0.08 0.03
339°
Apr 16, 15:51 27.35263° -84.28068° 1 min 0.08 0.07
90°
Apr 16, 15:49 27.35263° -84.28072° 8 min 0.08 0.01
Apr 16, 15:41 27.35260° -84.28072° 2 min 0.08 0.00
Apr 16, 15:39 27.35260° -84.28072° 8 min 0.08 0.02
Apr 16, 15:31 27.35255° -84.28072° 2 min 0.08 0.02
Apr 16, 15:29 27.35254° -84.28072° 8 min 0.08 0.03
21°
Apr 16, 15:21 27.35248° -84.28075° 2 min 0.08 0.05
180°
Apr 16, 15:19 27.35251° -84.28075° 8 min 0.08 0.01
Apr 16, 15:11 27.35248° -84.28075° 2 min 0.08 0.00
Apr 16, 15:09 27.35248° -84.28075° 8 min 0.08 0.01
Apr 16, 15:01 27.35247° -84.28075° 2 min 0.08 0.04
Apr 16, 14:59 27.35245° -84.28075° 8 min 0.08 0.01
Apr 16, 14:51 27.35243° -84.28075° 2 min 0.08 0.04
180°
Apr 16, 14:49 27.35245° -84.28075° 8 min 0.08 0.01
Apr 16, 14:41 27.35243° -84.28075° 2 min 0.08 0.00
Apr 16, 14:39 27.35243° -84.28075° 8 min 0.08 0.01
Apr 16, 14:31 27.35240° -84.28075° 2 min 0.08 0.00
Apr 16, 14:29 27.35240° -84.28075° 8 min 0.08 0.01
Apr 16, 14:21 27.35237° -84.28075° 2 min 0.08 0.04
180°
Apr 16, 14:19 27.35239° -84.28075° 8 min 0.08 0.02
Apr 16, 14:11 27.35233° -84.28075° 2 min 0.08 0.00
Apr 16, 14:09 27.35233° -84.28075° 8 min 0.08 0.02
Apr 16, 14:01 27.35228° -84.28075° 2 min 0.08 0.06
Apr 16, 13:59 27.35225° -84.28075° 8 min 0.08 0.01
Apr 16, 13:51 27.35221° -84.28075° 2 min 0.08 0.02
Apr 16, 13:49 27.35220° -84.28075° 8 min 0.08 0.01
Apr 16, 13:41 27.35217° -84.28075° 2 min 0.08 0.04
Apr 16, 13:39 27.35215° -84.28075° 8 min 0.08 0.01
Apr 16, 13:31 27.35213° -84.28075° 2 min 0.08 0.04
299°
Apr 16, 13:29 27.35212° -84.28072° 8 min 0.08 0.01
Apr 16, 13:21 27.35209° -84.28072° 2 min 0.08 0.04
Apr 16, 13:19 27.35206° -84.28072° 8 min 0.08 0.02
334°
Apr 16, 13:11 27.35202° -84.28070° 2 min 0.08 0.04
Apr 16, 13:09 27.35200° -84.28070° 8 min 0.08 0.04
348°
Apr 16, 13:01 27.35190° -84.28068° 2 min 0.08 0.07
328°
Apr 16, 12:59 27.35187° -84.28065° 8 min 0.08 0.04
336°
Apr 16, 12:51 27.35180° -84.28062° 1 min 0.08 0.07
328°
Apr 16, 12:49 27.35176° -84.28059° 8 min 0.08 0.05
337°
Apr 16, 12:41 27.35167° -84.28055° 2 min 0.08 0.06
337°
Apr 16, 12:39 27.35163° -84.28053° 8 min 0.08 0.05
325°
Apr 16, 12:31 27.35155° -84.28046° 2 min 0.08 0.07
328°
Apr 16, 12:29 27.35152° -84.28044° 8 min 0.08 0.05
328°
Apr 16, 12:21 27.35143° -84.28038° 2 min 0.08 0.04
295°
Apr 16, 12:19 27.35142° -84.28036° 8 min 0.08 0.05
319°
Apr 16, 12:11 27.35134° -84.28027° 2 min 0.08 0.09
309°
Apr 16, 12:09 27.35130° -84.28023° 8 min 0.08 0.05
304°
Apr 16, 12:01 27.35124° -84.28012° 2 min 0.08 0.07
302°
Apr 16, 11:59 27.35122° -84.28008° 8 min 0.08 0.06
320°
Apr 16, 11:51 27.35112° -84.27999° 2 min 0.08 0.05
316°
Apr 16, 11:49 27.35110° -84.27997° 8 min 0.08 0.06
308°
Apr 16, 11:41 27.35101° -84.27985° 2 min 0.08 0.08
286°
Apr 16, 11:39 27.35100° -84.27980° 8 min 0.08 0.05
286°
Apr 16, 11:31 27.35097° -84.27967° 2 min 0.08 0.08
297°
Apr 16, 11:29 27.35095° -84.27962° 8 min 0.08 0.07
274°
Apr 16, 11:21 27.35094° -84.27946° 2 min 0.08 0.07
270°
Apr 16, 11:19 27.35094° -84.27941° 8 min 0.08 0.07
279°
Apr 16, 11:11 27.35092° -84.27924° 2 min 0.08 0.12
249°
Apr 16, 11:09 27.35094° -84.27917° 8 min 0.08 0.06
257°
Apr 16, 11:01 27.35097° -84.27903° 2 min 0.08 0.08
254°
Apr 16, 10:59 27.35098° -84.27898° 8 min 0.08 0.05
236°
Apr 16, 10:51 27.35105° -84.27888° 2 min 0.08 0.10
249°
Apr 16, 10:49 27.35107° -84.27882° 8 min 0.08 0.05
241°
Apr 16, 10:41 27.35112° -84.27871° 2 min 0.08 0.08
254°
Apr 16, 10:39 27.35113° -84.27866° 8 min 0.08 0.04
229°
Apr 16, 10:31 27.35118° -84.27859° 2 min 0.07 0.02
270°
Apr 16, 10:29 27.35118° -84.27858° 8 min 0.07 0.04
223°
Apr 16, 10:21 27.35125° -84.27851° 2 min 0.07 0.00
Apr 16, 10:19 27.35125° -84.27851° 8 min 0.07 0.04
246°
Apr 16, 10:11 27.35128° -84.27843° 2 min 0.07 0.05
180°
Apr 16, 10:09 27.35131° -84.27843° 8 min 0.07 0.05
251°
Apr 16, 10:01 27.35135° -84.27832° 2 min 0.07 0.00
Apr 16, 09:59 27.35135° -84.27832° 7 min 0.07 0.03
234°
Apr 16, 09:51 27.35139° -84.27825° 2 min 0.07 0.03
235°
Apr 16, 09:49 27.35140° -84.27824° 8 min 0.07 0.03
200°
Apr 16, 09:41 27.35145° -84.27821° 2 min 0.07 0.04
270°
Apr 16, 09:39 27.35145° -84.27819° 8 min 0.07 0.02
206°
Apr 16, 09:31 27.35150° -84.27817° 2 min 0.07 0.07
238°
Apr 16, 09:29 27.35152° -84.27813° 8 min 0.07 0.01
180°
Apr 16, 09:21 27.35155° -84.27813° 2 min 0.07 0.05
224°
Apr 16, 09:19 27.35157° -84.27811° 8 min 0.07 0.04
223°
Apr 16, 09:11 27.35163° -84.27804° 2 min 0.07 0.02
180°
Apr 16, 09:09 27.35165° -84.27804° 8 min 0.07 0.02
198°
Apr 16, 09:01 27.35169° -84.27802° 2 min 0.07 0.02
180°
Apr 16, 08:59 27.35170° -84.27802° 8 min 0.07 0.02
180°
Apr 16, 08:51 27.35175° -84.27802° 2 min 0.07 0.08
254°
Apr 16, 08:49 27.35176° -84.27798° 8 min 0.07 0.02
180°
Apr 16, 08:41 27.35182° -84.27798° 2 min 0.07 0.06
180°
Apr 16, 08:39 27.35185° -84.27798° 8 min 0.07 0.02
180°
Apr 16, 08:31 27.35190° -84.27798° 2 min 0.07 0.04
245°
Apr 16, 08:29 27.35191° -84.27795° 8 min 0.07 0.03
200°
Apr 16, 08:21 27.35197° -84.27793° 2 min 0.07 0.04
245°
Apr 16, 08:19 27.35198° -84.27791° 8 min 0.07 0.02
180°
Apr 16, 08:11 27.35202° -84.27791° 2 min 0.07 0.02
180°
Apr 16, 08:09 27.35203° -84.27791° 8 min 0.07 0.01
180°
Apr 16, 08:01 27.35206° -84.27791° 2 min 0.07 0.05
213°
Apr 16, 07:59 27.35209° -84.27789° 8 min 0.07 0.02
212°
Apr 16, 07:51 27.35212° -84.27787° 2 min 0.07 0.00
Apr 16, 07:49 27.35212° -84.27787° 8 min 0.07 0.03
201°
Apr 16, 07:41 27.35217° -84.27785° 2 min 0.07 0.00
Apr 16, 07:39 27.35217° -84.27785° 8 min 0.07 0.00
Apr 16, 07:31 27.35217° -84.27785° 2 min 0.07 0.00
Apr 16, 07:29 27.35217° -84.27785° 8 min 0.07 0.01
180°
Apr 16, 07:21 27.35220° -84.27785° 2 min 0.07 0.04
270°
Apr 16, 07:19 27.35220° -84.27782° 8 min 0.07 0.01
180°
Apr 16, 07:11 27.35224° -84.27782° 1 min 0.07 0.04
90°
Apr 16, 07:09 27.35224° -84.27785° 8 min 0.07 0.02
212°
Apr 16, 07:01 27.35227° -84.27782° 2 min 0.07 0.00
Apr 16, 06:59 27.35227° -84.27782° 8 min 0.07 0.01
180°
Apr 16, 06:51 27.35230° -84.27782° 2 min 0.07 0.04
180°
Apr 16, 06:49 27.35232° -84.27782° 8 min 0.07 0.01
180°
Apr 16, 06:41 27.35235° -84.27782° 2 min 0.07 0.00
Apr 16, 06:39 27.35235° -84.27782° 8 min 0.07 0.01
180°
Apr 16, 06:31 27.35237° -84.27782° 2 min 0.07 0.00
Apr 16, 06:29 27.35237° -84.27782° 8 min 0.07 0.01
180°
Apr 16, 06:21 27.35240° -84.27782° 2 min 0.07 0.04
180°
Apr 16, 06:19 27.35242° -84.27782° 8 min 0.07 0.00
180°
Apr 16, 06:11 27.35243° -84.27782° 2 min 0.07 0.04
180°
Apr 16, 06:09 27.35245° -84.27782° 8 min 0.07 0.03
159°
Apr 16, 06:01 27.35250° -84.27785° 2 min 0.07 0.02
180°
Apr 16, 05:59 27.35251° -84.27785° 8 min 0.07 0.02
148°
Apr 16, 05:51 27.35255° -84.27787° 2 min 0.07 0.04
180°
Apr 16, 05:49 27.35257° -84.27787° 8 min 0.07 0.03
160°
Apr 16, 05:41 27.35262° -84.27789° 2 min 0.07 0.02
180°
Apr 16, 05:39 27.35263° -84.27789° 8 min 0.07 0.02
166°
Apr 16, 05:31 27.35269° -84.27791° 2 min 0.07 0.02
180°
Apr 16, 05:29 27.35270° -84.27791° 8 min 0.07 0.02
129°
Apr 16, 05:21 27.35273° -84.27795° 2 min 0.07 0.04
180°
Apr 16, 05:19 27.35275° -84.27795° 8 min 0.07 0.03
159°
Apr 16, 05:11 27.35280° -84.27798° 2 min 0.07 0.02
180°
Apr 16, 05:09 27.35282° -84.27798° 8 min 0.07 0.03
135°
Apr 16, 05:01 27.35287° -84.27804° 2 min 0.07 0.02
180°
Apr 16, 04:59 27.35288° -84.27804° 8 min 0.07 0.02
146°
Apr 16, 04:51 27.35291° -84.27806° 2 min 0.07 0.06
138°
Apr 16, 04:49 27.35293° -84.27808° 8 min 0.07 0.02
129°
Apr 16, 04:41 27.35297° -84.27813° 2 min 0.07 0.04
180°
Apr 16, 04:39 27.35299° -84.27813° 8 min 0.07 0.02
157°
Apr 16, 04:31 27.35302° -84.27814° 2 min 0.07 0.04
115°
Apr 16, 04:29 27.35303° -84.27817° 8 min 0.07 0.03
143°
Apr 16, 04:21 27.35308° -84.27821° 2 min 0.07 0.04
180°
Apr 16, 04:19 27.35311° -84.27821° 8 min 0.07 0.03
121°
Apr 16, 04:11 27.35314° -84.27827° 1 min 0.07 0.04
115°
Apr 16, 04:09 27.35315° -84.27830° 8 min 0.07 0.04
140°
Apr 16, 04:01 27.35321° -84.27836° 2 min 0.07 0.00
Apr 16, 03:59 27.35321° -84.27836° 8 min 0.07 0.04
131°
Apr 16, 03:51 27.35327° -84.27843° 2 min 0.07 0.05
136°
Apr 16, 03:49 27.35329° -84.27845° 8 min 0.07 0.03
129°
Apr 16, 03:41 27.35333° -84.27851° 2 min 0.07 0.04
90°
Apr 16, 03:39 27.35333° -84.27853° 8 min 0.07 0.02
129°
Apr 16, 03:31 27.35336° -84.27858° 2 min 0.07 0.07
122°
Apr 16, 03:29 27.35338° -84.27862° 8 min 0.07 0.03
118°
Apr 16, 03:21 27.35342° -84.27869° 2 min 0.07 0.05
136°
Apr 16, 03:19 27.35344° -84.27871° 8 min 0.07 0.03
121°
Apr 16, 03:11 27.35347° -84.27877° 2 min 0.07 0.05
44°
Apr 16, 03:09 27.35345° -84.27879° 8 min 0.07 0.03
121°
Apr 16, 03:01 27.35348° -84.27885° 2 min 0.07 0.05
136°
Apr 16, 02:59 27.35350° -84.27888° 8 min 0.07 0.01
90°
Apr 16, 02:51 27.35350° -84.27890° 2 min 0.07 0.04
90°
Apr 16, 02:49 27.35350° -84.27892° 8 min 0.07 0.01
130°
Apr 16, 02:41 27.35351° -84.27894° 2 min 0.07 0.04
90°
Apr 16, 02:39 27.35351° -84.27896° 8 min 0.07 0.01
90°
Apr 16, 02:31 27.35351° -84.27898° 2 min 0.07 0.00
Apr 16, 02:29 27.35351° -84.27898° 8 min 0.07 0.02
90°
Apr 16, 02:21 27.35351° -84.27903° 2 min 0.07 0.00
Apr 16, 02:19 27.35351° -84.27903° 8 min 0.07 0.01
147°
Apr 16, 02:11 27.35353° -84.27905° 2 min 0.07 0.04
90°
Apr 16, 02:09 27.35353° -84.27907° 8 min 0.07 0.02
90°
Apr 16, 02:01 27.35353° -84.27911° 2 min 0.07 0.00
Apr 16, 01:59 27.35353° -84.27911° 8 min 0.07 0.01
Apr 16, 01:51 27.35351° -84.27911° 2 min 0.07 0.00
Apr 16, 01:49 27.35351° -84.27911° 8 min 0.07 0.01
136°
Apr 16, 01:41 27.35353° -84.27914° 2 min 0.07 0.02
180°
Apr 16, 01:39 27.35354° -84.27914° 8 min 0.07 0.00
Apr 16, 01:31 27.35354° -84.27914° 1 min 0.07 0.00
Apr 16, 01:29 27.35354° -84.27914° 8 min 0.07 0.02
90°
Apr 16, 01:21 27.35354° -84.27917° 2 min 0.07 0.00
Apr 16, 01:19 27.35354° -84.27917° 8 min 0.07 0.01
90°
Apr 16, 01:11 27.35354° -84.27920° 2 min 0.07 0.00
Apr 16, 01:09 27.35354° -84.27920° 8 min 0.07 0.01
90°
Apr 16, 01:01 27.35354° -84.27922° 2 min 0.07 0.00
Apr 16, 00:59 27.35354° -84.27922° 8 min 0.07 0.01
138°
Apr 16, 00:51 27.35357° -84.27924° 2 min 0.08 0.04
Apr 16, 00:49 27.35354° -84.27924° 8 min 0.07 0.01
180°
Apr 16, 00:41 27.35357° -84.27924° 2 min 0.08 0.00
Apr 16, 00:39 27.35357° -84.27924° 8 min 0.08 0.01
90°
Apr 16, 00:31 27.35357° -84.27927° 2 min 0.08 0.05
31°
Apr 16, 00:29 27.35354° -84.27928° 8 min 0.07 0.01
90°
Apr 16, 00:21 27.35354° -84.27930° 2 min 0.07 0.04
90°
Apr 16, 00:19 27.35354° -84.27933° 8 min 0.08 0.01
138°
Apr 16, 00:11 27.35357° -84.27935° 2 min 0.08 0.04
Apr 16, 00:09 27.35354° -84.27935° 8 min 0.08 0.02
119°
Apr 16, 00:01 27.35357° -84.27940° 2 min 0.08 0.04
270°
Apr 15, 23:59 27.35357° -84.27937° 8 min 0.08 0.01
90°
Apr 15, 23:51 27.35357° -84.27940° 2 min 0.08 0.00
Apr 15, 23:49 27.35357° -84.27940° 8 min 0.08 0.02
90°
Apr 15, 23:41 27.35357° -84.27943° 2 min 0.08 0.00
Apr 15, 23:39 27.35357° -84.27943° 8 min 0.08 0.02
90°
Apr 15, 23:31 27.35357° -84.27948° 2 min 0.08 0.00
Apr 15, 23:29 27.35357° -84.27948° 8 min 0.08 0.01
90°
Apr 15, 23:21 27.35357° -84.27950° 2 min 0.08 0.00
Apr 15, 23:19 27.35357° -84.27950° 8 min 0.08 0.02
90°
Apr 15, 23:11 27.35357° -84.27954° 2 min 0.08 0.00
Apr 15, 23:09 27.35357° -84.27954° 8 min 0.08 0.01
90°
Apr 15, 23:01 27.35357° -84.27956° 2 min 0.08 0.04
90°
Apr 15, 22:59 27.35357° -84.27959° 8 min 0.08 0.02
56°
Apr 15, 22:51 27.35354° -84.27962° 1 min 0.08 0.04
90°
Apr 15, 22:49 27.35354° -84.27965° 8 min 0.08 0.02
77°
Apr 15, 22:41 27.35353° -84.27969° 2 min 0.08 0.04
115°
Apr 15, 22:39 27.35354° -84.27972° 8 min 0.08 0.02
90°
Apr 15, 22:31 27.35354° -84.27975° 2 min 0.08 0.02
Apr 15, 22:29 27.35353° -84.27975° 8 min 0.08 0.01
90°
Apr 15, 22:21 27.35353° -84.27978° 2 min 0.08 0.04
Apr 15, 22:19 27.35351° -84.27978° 8 min 0.08 0.01
90°
Apr 15, 22:11 27.35351° -84.27980° 2 min 0.08 0.00
Apr 15, 22:09 27.35351° -84.27980° 8 min 0.08 0.02
90°
Apr 15, 22:01 27.35351° -84.27985° 2 min 0.08 0.04
299°
Apr 15, 21:59 27.35350° -84.27982° 8 min 0.08 0.01
90°
Apr 15, 21:51 27.35350° -84.27985° 2 min 0.08 0.00
Apr 15, 21:49 27.35350° -84.27985° 8 min 0.08 0.01
90°
Apr 15, 21:41 27.35350° -84.27986° 2 min 0.08 0.02
270°
Apr 15, 21:39 27.35350° -84.27985° 8 min 0.08 0.02
90°
Apr 15, 21:31 27.35350° -84.27988° 2 min 0.08 0.04
Apr 15, 21:29 27.35348° -84.27988° 8 min 0.08 0.00
Apr 15, 21:21 27.35348° -84.27988° 2 min 0.08 0.04
90°
Apr 15, 21:19 27.35348° -84.27991° 8 min 0.08 0.01
61°
Apr 15, 21:11 27.35347° -84.27993° 2 min 0.08 0.00
Apr 15, 21:09 27.35347° -84.27993° 8 min 0.08 0.01
44°
Apr 15, 21:01 27.35345° -84.27995° 2 min 0.08 0.02
90°
Apr 15, 20:59 27.35345° -84.27997° 8 min 0.08 0.01
90°
Apr 15, 20:51 27.35345° -84.27999° 2 min 0.08 0.02
Apr 15, 20:49 27.35344° -84.27999° 8 min 0.08 0.01
90°
Apr 15, 20:41 27.35344° -84.28001° 2 min 0.08 0.00
Apr 15, 20:39 27.35344° -84.28001° 8 min 0.08 0.00
Apr 15, 20:31 27.35344° -84.28001° 2 min 0.08 0.05
44°
Apr 15, 20:29 27.35342° -84.28004° 8 min 0.08 0.02
90°
Apr 15, 20:21 27.35342° -84.28008° 2 min 0.08 0.00
Apr 15, 20:19 27.35342° -84.28008° 8 min 0.08 0.01
Apr 15, 20:11 27.35340° -84.28008° 1 min 0.08 0.02
90°
Apr 15, 20:09 27.35340° -84.28010° 8 min 0.08 0.01
44°
Apr 15, 20:01 27.35338° -84.28012° 2 min 0.08 0.00
Apr 15, 19:59 27.35338° -84.28012° 8 min 0.08 0.02
51°
Apr 15, 19:51 27.35335° -84.28017° 2 min 0.08 0.05
44°
Apr 15, 19:49 27.35333° -84.28019° 8 min 0.08 0.02
71°
Apr 15, 19:41 27.35332° -84.28023° 2 min 0.08 0.04
Apr 15, 19:39 27.35330° -84.28023° 8 min 0.08 0.02
32°
Apr 15, 19:31 27.35327° -84.28025° 2 min 0.08 0.04
61°
Apr 15, 19:29 27.35325° -84.28027° 8 min 0.08 0.01
44°
Apr 15, 19:21 27.35323° -84.28030° 2 min 0.08 0.00
Apr 15, 19:19 27.35323° -84.28030° 8 min 0.08 0.01
Apr 15, 19:11 27.35321° -84.28030° 2 min 0.08 0.00
Apr 15, 19:09 27.35321° -84.28030° 8 min 0.08 0.03
59°
Apr 15, 19:01 27.35318° -84.28036° 2 min 0.08 0.00
Apr 15, 18:59 27.35318° -84.28036° 8 min 0.08 0.01
65°
Apr 15, 18:51 27.35317° -84.28038° 2 min 0.08 0.00
Apr 15, 18:49 27.35317° -84.28038° 8 min 0.08 0.01
42°
Apr 15, 18:41 27.35315° -84.28040° 2 min 0.08 0.02
Apr 15, 18:39 27.35314° -84.28040° 8 min 0.08 0.02
56°
Apr 15, 18:31 27.35312° -84.28044° 2 min 0.08 0.02
Apr 15, 18:29 27.35311° -84.28044° 8 min 0.08 0.02
Apr 15, 18:21 27.35306° -84.28044° 2 min 0.08 0.04
90°
Apr 15, 18:19 27.35306° -84.28046° 8 min 0.08 0.03
18°
Apr 15, 18:11 27.35300° -84.28049° 2 min 0.08 0.04
90°
Apr 15, 18:09 27.35300° -84.28051° 8 min 0.08 0.02
25°
Apr 15, 18:01 27.35295° -84.28053° 2 min 0.08 0.00
Apr 15, 17:59 27.35295° -84.28053° 8 min 0.08 0.02
17°
Apr 15, 17:51 27.35291° -84.28055° 2 min 0.08 0.02
Apr 15, 17:49 27.35290° -84.28055° 8 min 0.08 0.03
21°
Apr 15, 17:41 27.35285° -84.28057° 2 min 0.08 0.04
90°
Apr 15, 17:39 27.35285° -84.28059° 8 min 0.08 0.02
25°
Apr 15, 17:31 27.35280° -84.28062° 1 min 0.08 0.00
Apr 15, 17:29 27.35280° -84.28062° 8 min 0.08 0.03
21°
Apr 15, 17:21 27.35275° -84.28064° 2 min 0.08 0.02
90°
Apr 15, 17:19 27.35275° -84.28065° 8 min 0.08 0.03
21°
Apr 15, 17:11 27.35270° -84.28068° 2 min 0.08 0.00
Apr 15, 17:09 27.35270° -84.28068° 8 min 0.08 0.03
17°
Apr 15, 17:01 27.35263° -84.28070° 2 min 0.08 0.00
Apr 15, 16:59 27.35263° -84.28070° 8 min 0.08 0.02
32°
Apr 15, 16:51 27.35260° -84.28072° 2 min 0.08 0.04
Apr 15, 16:49 27.35258° -84.28072° 8 min 0.08 0.02
32°
Apr 15, 16:41 27.35255° -84.28075° 2 min 0.08 0.00
Apr 15, 16:39 27.35255° -84.28075° 8 min 0.08 0.01
Apr 15, 16:31 27.35251° -84.28075° 2 min 0.08 0.02
Apr 15, 16:29 27.35250° -84.28075° 8 min 0.08 0.02
32°
Apr 15, 16:21 27.35247° -84.28077° 2 min 0.08 0.05
316°
Apr 15, 16:19 27.35245° -84.28075° 8 min 0.08 0.01
Apr 15, 16:11 27.35242° -84.28075° 2 min 0.08 0.04
90°
Apr 15, 16:09 27.35242° -84.28077° 8 min 0.08 0.03
339°
Apr 15, 16:01 27.35237° -84.28075° 2 min 0.08 0.04
90°
Apr 15, 15:59 27.35237° -84.28077° 8 min 0.08 0.01
Apr 15, 15:51 27.35233° -84.28077° 2 min 0.08 0.04
270°
Apr 15, 15:49 27.35233° -84.28075° 8 min 0.08 0.02
Apr 15, 15:41 27.35228° -84.28075° 2 min 0.08 0.00
Apr 15, 15:39 27.35228° -84.28075° 8 min 0.08 0.02
25°
Apr 15, 15:31 27.35224° -84.28077° 2 min 0.08 0.05
316°
Apr 15, 15:29 27.35221° -84.28075° 8 min 0.08 0.01
61°
Apr 15, 15:21 27.35220° -84.28077° 2 min 0.08 0.04
Apr 15, 15:19 27.35218° -84.28077° 8 min 0.08 0.03
343°
Apr 15, 15:11 27.35212° -84.28075° 2 min 0.08 0.00
Apr 15, 15:09 27.35212° -84.28075° 8 min 0.08 0.02
Apr 15, 15:01 27.35206° -84.28075° 2 min 0.08 0.00
Apr 15, 14:59 27.35206° -84.28075° 8 min 0.08 0.01
Apr 15, 14:51 27.35203° -84.28075° 1 min 0.08 0.00
Apr 15, 14:49 27.35203° -84.28075° 8 min 0.08 0.01
Apr 15, 14:41 27.35200° -84.28075° 2 min 0.08 0.00
Apr 15, 14:39 27.35200° -84.28075° 8 min 0.08 0.02
Apr 15, 14:31 27.35195° -84.28075° 2 min 0.09 0.00
Apr 15, 14:29 27.35195° -84.28075° 8 min 0.09 0.02
328°
Apr 15, 14:21 27.35191° -84.28072° 2 min 0.08 0.04
90°
Apr 15, 14:19 27.35191° -84.28075° 8 min 0.09 0.03
316°
Apr 15, 14:11 27.35187° -84.28070° 2 min 0.08 0.02
180°
Apr 15, 14:09 27.35188° -84.28070° 8 min 0.08 0.03
339°
Apr 15, 14:01 27.35183° -84.28068° 2 min 0.08 0.02
Apr 15, 13:59 27.35182° -84.28068° 8 min 0.08 0.01
Apr 15, 13:51 27.35179° -84.28068° 2 min 0.08 0.04
270°
Apr 15, 13:49 27.35179° -84.28065° 8 min 0.08 0.03
Apr 15, 13:41 27.35172° -84.28065° 2 min 0.09 0.02
270°
Apr 15, 13:39 27.35172° -84.28064° 8 min 0.08 0.02
328°
Apr 15, 13:31 27.35169° -84.28062° 2 min 0.08 0.00
Apr 15, 13:29 27.35169° -84.28062° 8 min 0.08 0.03
339°
Apr 15, 13:21 27.35163° -84.28059° 2 min 0.08 0.05
316°
Apr 15, 13:19 27.35161° -84.28057° 8 min 0.08 0.02
Apr 15, 13:11 27.35157° -84.28057° 2 min 0.09 0.06
270°
Apr 15, 13:09 27.35157° -84.28053° 8 min 0.08 0.03
323°
Apr 15, 13:01 27.35152° -84.28049° 2 min 0.08 0.06
Apr 15, 12:59 27.35148° -84.28049° 8 min 0.08 0.03
323°
Apr 15, 12:51 27.35143° -84.28044° 2 min 0.08 0.04
295°
Apr 15, 12:49 27.35142° -84.28042° 8 min 0.08 0.04
336°
Apr 15, 12:41 27.35135° -84.28038° 2 min 0.09 0.04
295°
Apr 15, 12:39 27.35134° -84.28036° 8 min 0.08 0.05
319°
Apr 15, 12:31 27.35125° -84.28027° 2 min 0.09 0.04
299°
Apr 15, 12:29 27.35124° -84.28025° 8 min 0.09 0.05
308°
Apr 15, 12:21 27.35116° -84.28014° 2 min 0.08 0.06
Apr 15, 12:19 27.35113° -84.28014° 8 min 0.09 0.05
295°
Apr 15, 12:11 27.35109° -84.28004° 2 min 0.09 0.05
316°
Apr 15, 12:09 27.35107° -84.28001° 8 min 0.09 0.06
299°
Apr 15, 12:01 27.35100° -84.27988° 2 min 0.09 0.05
316°
Apr 15, 11:59 27.35098° -84.27986° 7 min 0.09 0.06
284°
Apr 15, 11:51 27.35095° -84.27972° 2 min 0.09 0.04
295°
Apr 15, 11:49 27.35094° -84.27969° 8 min 0.09 0.05
281°
Apr 15, 11:41 27.35092° -84.27956° 2 min 0.09 0.09
309°
Apr 15, 11:39 27.35088° -84.27952° 8 min 0.09 0.05
270°
Apr 15, 11:31 27.35088° -84.27940° 2 min 0.09 0.08
254°
Apr 15, 11:29 27.35089° -84.27935° 8 min 0.08 0.05
270°
Apr 15, 11:21 27.35089° -84.27922° 2 min 0.08 0.07
270°
Apr 15, 11:19 27.35089° -84.27917° 8 min 0.08 0.06
249°
Apr 15, 11:11 27.35094° -84.27905° 2 min 0.08 0.06
270°
Apr 15, 11:09 27.35094° -84.27901° 8 min 0.08 0.06
250°
Apr 15, 11:01 27.35098° -84.27888° 2 min 0.08 0.05
224°
Apr 15, 10:59 27.35100° -84.27885° 8 min 0.08 0.06
249°
Apr 15, 10:51 27.35105° -84.27872° 2 min 0.08 0.08
198°
Apr 15, 10:49 27.35109° -84.27871° 8 min 0.08 0.05
237°
Apr 15, 10:41 27.35115° -84.27859° 2 min 0.08 0.03
230°
Apr 15, 10:39 27.35116° -84.27858° 8 min 0.08 0.05
241°
Apr 15, 10:31 27.35122° -84.27847° 2 min 0.08 0.05
224°
Apr 15, 10:29 27.35124° -84.27845° 8 min 0.08 0.03
212°
Apr 15, 10:21 27.35130° -84.27840° 2 min 0.07 0.04
270°
Apr 15, 10:19 27.35130° -84.27838° 8 min 0.07 0.02
219°
Apr 15, 10:11 27.35135° -84.27834° 2 min 0.07 0.05
224°
Apr 15, 10:09 27.35137° -84.27832° 8 min 0.07 0.03
216°
Apr 15, 10:01 27.35142° -84.27827° 2 min 0.07 0.04
245°
Apr 15, 09:59 27.35143° -84.27825° 8 min 0.07 0.02
226°
Apr 15, 09:51 27.35146° -84.27821° 2 min 0.07 0.04
270°
Apr 15, 09:49 27.35146° -84.27819° 8 min 0.07 0.02
231°
Apr 15, 09:41 27.35150° -84.27814° 2 min 0.07 0.02
270°
Apr 15, 09:39 27.35150° -84.27813° 8 min 0.07 0.04
180°
Apr 15, 09:31 27.35158° -84.27813° 2 min 0.07 0.04
270°
Apr 15, 09:29 27.35158° -84.27811° 8 min 0.07 0.02
231°
Apr 15, 09:21 27.35161° -84.27806° 2 min 0.07 0.04
180°
Apr 15, 09:19 27.35163° -84.27806° 8 min 0.07 0.03
201°
Apr 15, 09:11 27.35169° -84.27804° 2 min 0.07 0.00
Apr 15, 09:09 27.35169° -84.27804° 8 min 0.07 0.02
226°
Apr 15, 09:01 27.35172° -84.27800° 2 min 0.07 0.04
241°
Apr 15, 08:59 27.35173° -84.27798° 8 min 0.07 0.02
180°
Apr 15, 08:51 27.35179° -84.27798° 1 min 0.07 0.00
Apr 15, 08:49 27.35179° -84.27798° 8 min 0.07 0.01
180°
Apr 15, 08:41 27.35182° -84.27798° 2 min 0.07 0.00
Apr 15, 08:39 27.35182° -84.27798° 8 min 0.07 0.03
217°
Apr 15, 08:31 27.35187° -84.27793° 2 min 0.07 0.02
180°
Apr 15, 08:29 27.35188° -84.27793° 8 min 0.07 0.02
212°
Apr 15, 08:21 27.35191° -84.27791° 2 min 0.07 0.04
180°
Apr 15, 08:19 27.35194° -84.27791° 8 min 0.07 0.00
180°
Apr 15, 08:11 27.35195° -84.27791° 2 min 0.07 0.05
211°
Apr 15, 08:09 27.35197° -84.27789° 8 min 0.07 0.03
201°
Apr 15, 08:01 27.35202° -84.27787° 2 min 0.07 0.00
Apr 15, 07:59 27.35202° -84.27787° 8 min 0.07 0.00
180°
Apr 15, 07:51 27.35203° -84.27787° 2 min 0.07 0.05
224°
Apr 15, 07:49 27.35205° -84.27785° 8 min 0.07 0.01
241°
Apr 15, 07:41 27.35206° -84.27782° 2 min 0.07 0.00
Apr 15, 07:39 27.35206° -84.27782° 8 min 0.07 0.01
180°
Apr 15, 07:31 27.35209° -84.27782° 2 min 0.07 0.02
180°
Apr 15, 07:29 27.35210° -84.27782° 8 min 0.07 0.01
180°
Apr 15, 07:21 27.35213° -84.27782° 2 min 0.07 0.00
Apr 15, 07:19 27.35213° -84.27782° 8 min 0.07 0.02
180°
Apr 15, 07:11 27.35217° -84.27782° 2 min 0.07 0.02
180°
Apr 15, 07:09 27.35218° -84.27782° 8 min 0.07